sensor_id;sensor_type;location;lat;lon;timestamp;pressure;altitude;pressure_sealevel;temperature;humidity
59767;BME280;46248;58.364;25.582;2023-03-14T00:01:21;97774.91;;;1.83;100.00
59767;BME280;46248;58.364;25.582;2023-03-14T00:04:43;97755.84;;;1.86;100.00
59767;BME280;46248;58.364;25.582;2023-03-14T00:08:06;97750.50;;;1.89;100.00
59767;BME280;46248;58.364;25.582;2023-03-14T00:11:28;97751.25;;;1.91;100.00
59767;BME280;46248;58.364;25.582;2023-03-14T00:14:51;97745.97;;;1.92;100.00
59767;BME280;46248;58.364;25.582;2023-03-14T00:18:13;97747.34;;;1.98;100.00
59767;BME280;46248;58.364;25.582;2023-03-14T00:21:35;97743.66;;;2.02;100.00
59767;BME280;46248;58.364;25.582;2023-03-14T00:24:59;97746.78;;;2.07;100.00
59767;BME280;46248;58.364;25.582;2023-03-14T00:28:22;97736.28;;;2.10;100.00
59767;BME280;46248;58.364;25.582;2023-03-14T00:31:43;97719.78;;;2.13;100.00
59767;BME280;46248;58.364;25.582;2023-03-14T00:35:06;97725.47;;;2.18;100.00
59767;BME280;46248;58.364;25.582;2023-03-14T00:38:30;97685.88;;;2.04;100.00
59767;BME280;46248;58.364;25.582;2023-03-14T00:41:55;97715.63;;;2.24;100.00
59767;BME280;46248;58.364;25.582;2023-03-14T00:45:17;97711.84;;;2.30;100.00
59767;BME280;46248;58.364;25.582;2023-03-14T00:48:39;97706.28;;;2.36;100.00
59767;BME280;46248;58.364;25.582;2023-03-14T00:52:01;97707.81;;;2.39;100.00
59767;BME280;46248;58.364;25.582;2023-03-14T00:55:23;97709.19;;;2.44;100.00
59767;BME280;46248;58.364;25.582;2023-03-14T00:58:46;97702.81;;;2.50;100.00
59767;BME280;46248;58.364;25.582;2023-03-14T01:02:08;97700.03;;;2.53;100.00
59767;BME280;46248;58.364;25.582;2023-03-14T01:05:30;97706.75;;;2.56;100.00
59767;BME280;46248;58.364;25.582;2023-03-14T01:08:53;97709.16;;;2.59;100.00
59767;BME280;46248;58.364;25.582;2023-03-14T01:12:15;97713.19;;;2.63;100.00
59767;BME280;46248;58.364;25.582;2023-03-14T01:15:39;97701.75;;;2.67;100.00
59767;BME280;46248;58.364;25.582;2023-03-14T01:19:01;97688.22;;;2.63;100.00
59767;BME280;46248;58.364;25.582;2023-03-14T01:22:23;97689.53;;;2.69;100.00
59767;BME280;46248;58.364;25.582;2023-03-14T01:25:45;97680.13;;;2.68;100.00
59767;BME280;46248;58.364;25.582;2023-03-14T01:29:07;97678.53;;;2.80;100.00
59767;BME280;46248;58.364;25.582;2023-03-14T01:32:30;97673.34;;;2.80;100.00
59767;BME280;46248;58.364;25.582;2023-03-14T01:35:52;97663.75;;;2.82;100.00
59767;BME280;46248;58.364;25.582;2023-03-14T01:39:14;97668.72;;;2.85;100.00
59767;BME280;46248;58.364;25.582;2023-03-14T01:42:36;97659.84;;;2.89;100.00
59767;BME280;46248;58.364;25.582;2023-03-14T01:49:59;97662.75;;;2.97;100.00
59767;BME280;46248;58.364;25.582;2023-03-14T01:53:23;97668.53;;;3.01;100.00
59767;BME280;46248;58.364;25.582;2023-03-14T01:56:48;97664.19;;;3.01;100.00
59767;BME280;46248;58.364;25.582;2023-03-14T02:00:13;97666.38;;;3.07;100.00
59767;BME280;46248;58.364;25.582;2023-03-14T02:03:41;97663.50;;;3.12;100.00
59767;BME280;46248;58.364;25.582;2023-03-14T02:07:10;97656.03;;;3.07;100.00
59767;BME280;46248;58.364;25.582;2023-03-14T02:10:38;97664.81;;;3.17;100.00
59767;BME280;46248;58.364;25.582;2023-03-14T02:14:01;97662.88;;;3.21;100.00
59767;BME280;46248;58.364;25.582;2023-03-14T02:17:24;97672.06;;;3.25;100.00
59767;BME280;46248;58.364;25.582;2023-03-14T02:20:50;97667.84;;;3.24;100.00
59767;BME280;46248;58.364;25.582;2023-03-14T02:24:20;97657.72;;;3.21;100.00
59767;BME280;46248;58.364;25.582;2023-03-14T02:27:48;97666.16;;;3.36;100.00
59767;BME280;46248;58.364;25.582;2023-03-14T02:31:10;97653.06;;;3.39;100.00
59767;BME280;46248;58.364;25.582;2023-03-14T02:34:33;97665.47;;;3.47;100.00
59767;BME280;46248;58.364;25.582;2023-03-14T02:38:00;97666.19;;;3.49;100.00
59767;BME280;46248;58.364;25.582;2023-03-14T02:41:25;97655.94;;;3.47;100.00
59767;BME280;46248;58.364;25.582;2023-03-14T02:44:53;97652.94;;;3.53;100.00
59767;BME280;46248;58.364;25.582;2023-03-14T02:48:18;97661.94;;;3.60;100.00
59767;BME280;46248;58.364;25.582;2023-03-14T02:51:43;97666.78;;;3.65;100.00
59767;BME280;46248;58.364;25.582;2023-03-14T02:55:07;97673.59;;;3.66;100.00
59767;BME280;46248;58.364;25.582;2023-03-14T02:58:29;97673.41;;;3.69;100.00
59767;BME280;46248;58.364;25.582;2023-03-14T03:01:52;97677.44;;;3.73;100.00
59767;BME280;46248;58.364;25.582;2023-03-14T03:05:14;97684.88;;;3.78;100.00
59767;BME280;46248;58.364;25.582;2023-03-14T03:08:36;97685.72;;;3.78;100.00
59767;BME280;46248;58.364;25.582;2023-03-14T03:11:57;97674.44;;;3.79;100.00
59767;BME280;46248;58.364;25.582;2023-03-14T03:15:19;97691.53;;;3.82;100.00
59767;BME280;46248;58.364;25.582;2023-03-14T03:18:43;97673.88;;;3.87;100.00
59767;BME280;46248;58.364;25.582;2023-03-14T03:22:04;97689.00;;;3.93;100.00
59767;BME280;46248;58.364;25.582;2023-03-14T03:25:26;97674.09;;;3.97;100.00
59767;BME280;46248;58.364;25.582;2023-03-14T03:28:50;97678.84;;;4.03;100.00
59767;BME280;46248;58.364;25.582;2023-03-14T03:32:12;97656.59;;;4.00;100.00
59767;BME280;46248;58.364;25.582;2023-03-14T03:35:41;97677.25;;;4.13;100.00
59767;BME280;46248;58.364;25.582;2023-03-14T03:39:03;97658.91;;;4.16;100.00
59767;BME280;46248;58.364;25.582;2023-03-14T03:42:26;97659.09;;;4.26;100.00
59767;BME280;46248;58.364;25.582;2023-03-14T03:45:47;97669.00;;;4.32;100.00
59767;BME280;46248;58.364;25.582;2023-03-14T03:49:09;97673.75;;;4.38;100.00
59767;BME280;46248;58.364;25.582;2023-03-14T03:52:32;97656.34;;;4.40;100.00
59767;BME280;46248;58.364;25.582;2023-03-14T03:55:54;97656.00;;;4.45;100.00
59767;BME280;46248;58.364;25.582;2023-03-14T03:59:15;97662.19;;;4.55;100.00
59767;BME280;46248;58.364;25.582;2023-03-14T04:02:37;97651.91;;;4.53;100.00
59767;BME280;46248;58.364;25.582;2023-03-14T04:06:00;97659.16;;;4.61;100.00
59767;BME280;46248;58.364;25.582;2023-03-14T04:09:24;97659.97;;;4.62;100.00
59767;BME280;46248;58.364;25.582;2023-03-14T04:12:46;97643.47;;;4.63;100.00
59767;BME280;46248;58.364;25.582;2023-03-14T04:16:14;97640.28;;;4.59;100.00
59767;BME280;46248;58.364;25.582;2023-03-14T04:19:38;97649.50;;;4.63;100.00
59767;BME280;46248;58.364;25.582;2023-03-14T04:23:00;97645.16;;;4.64;100.00
59767;BME280;46248;58.364;25.582;2023-03-14T04:26:23;97643.22;;;4.54;100.00
59767;BME280;46248;58.364;25.582;2023-03-14T04:29:45;97655.84;;;4.59;100.00
59767;BME280;46248;58.364;25.582;2023-03-14T04:33:07;97650.56;;;4.61;100.00
59767;BME280;46248;58.364;25.582;2023-03-14T04:36:29;97624.97;;;4.56;100.00
59767;BME280;46248;58.364;25.582;2023-03-14T04:39:50;97633.34;;;4.59;100.00
59767;BME280;46248;58.364;25.582;2023-03-14T04:43:14;97646.91;;;4.63;100.00
59767;BME280;46248;58.364;25.582;2023-03-14T04:46:36;97643.47;;;4.63;100.00
59767;BME280;46248;58.364;25.582;2023-03-14T04:49:58;97651.47;;;4.59;100.00
59767;BME280;46248;58.364;25.582;2023-03-14T04:53:19;97655.50;;;4.64;100.00
59767;BME280;46248;58.364;25.582;2023-03-14T04:56:41;97654.47;;;4.66;100.00
59767;BME280;46248;58.364;25.582;2023-03-14T05:00:05;97647.75;;;4.64;100.00
59767;BME280;46248;58.364;25.582;2023-03-14T05:03:27;97657.16;;;4.65;100.00
59767;BME280;46248;58.364;25.582;2023-03-14T05:06:49;97669.06;;;4.67;100.00
59767;BME280;46248;58.364;25.582;2023-03-14T05:10:11;97667.44;;;4.66;100.00
59767;BME280;46248;58.364;25.582;2023-03-14T05:13:33;97660.31;;;4.57;100.00
59767;BME280;46248;58.364;25.582;2023-03-14T05:16:56;97670.47;;;4.60;100.00
59767;BME280;46248;58.364;25.582;2023-03-14T05:20:18;97683.91;;;4.65;100.00
59767;BME280;46248;58.364;25.582;2023-03-14T05:23:40;97690.63;;;4.68;100.00
59767;BME280;46248;58.364;25.582;2023-03-14T05:27:02;97695.94;;;4.66;100.00
59767;BME280;46248;58.364;25.582;2023-03-14T05:30:24;97707.00;;;4.68;100.00
59767;BME280;46248;58.364;25.582;2023-03-14T05:33:47;97704.38;;;4.57;100.00
59767;BME280;46248;58.364;25.582;2023-03-14T05:37:09;97713.44;;;4.63;100.00
59767;BME280;46248;58.364;25.582;2023-03-14T05:40:31;97719.25;;;4.66;100.00
59767;BME280;46248;58.364;25.582;2023-03-14T05:43:53;97725.97;;;4.69;100.00
59767;BME280;46248;58.364;25.582;2023-03-14T05:47:14;97721.50;;;4.71;100.00
59767;BME280;46248;58.364;25.582;2023-03-14T05:50:38;97725.16;;;4.68;100.00
59767;BME280;46248;58.364;25.582;2023-03-14T05:54:00;97751.41;;;4.88;100.00
59767;BME280;46248;58.364;25.582;2023-03-14T05:57:21;97756.03;;;4.95;100.00
59767;BME280;46248;58.364;25.582;2023-03-14T06:00:43;97757.25;;;5.02;100.00
59767;BME280;46248;58.364;25.582;2023-03-14T06:04:07;97757.50;;;5.11;100.00
59767;BME280;46248;58.364;25.582;2023-03-14T06:07:30;97750.31;;;5.14;100.00
59767;BME280;46248;58.364;25.582;2023-03-14T06:10:52;97754.00;;;5.12;100.00
59767;BME280;46248;58.364;25.582;2023-03-14T06:14:14;97768.25;;;5.17;100.00
59767;BME280;46248;58.364;25.582;2023-03-14T06:17:36;97764.75;;;5.18;100.00
59767;BME280;46248;58.364;25.582;2023-03-14T06:20:58;97760.38;;;5.19;100.00
59767;BME280;46248;58.364;25.582;2023-03-14T06:24:21;97774.44;;;5.27;100.00
59767;BME280;46248;58.364;25.582;2023-03-14T06:27:43;97785.31;;;5.33;100.00
59767;BME280;46248;58.364;25.582;2023-03-14T06:31:05;97780.34;;;5.30;100.00
59767;BME280;46248;58.364;25.582;2023-03-14T06:34:27;97775.16;;;5.30;100.00
59767;BME280;46248;58.364;25.582;2023-03-14T06:37:49;97781.28;;;5.28;100.00
59767;BME280;46248;58.364;25.582;2023-03-14T06:41:12;97783.56;;;5.33;100.00
59767;BME280;46248;58.364;25.582;2023-03-14T06:44:34;97778.22;;;5.35;100.00
59767;BME280;46248;58.364;25.582;2023-03-14T06:47:56;97785.78;;;5.38;100.00
59767;BME280;46248;58.364;25.582;2023-03-14T06:51:18;97788.16;;;5.41;100.00
59767;BME280;46248;58.364;25.582;2023-03-14T06:54:40;97779.22;;;5.45;100.00
59767;BME280;46248;58.364;25.582;2023-03-14T06:58:03;97782.97;;;5.41;100.00
59767;BME280;46248;58.364;25.582;2023-03-14T07:01:29;97783.00;;;5.52;100.00
59767;BME280;46248;58.364;25.582;2023-03-14T07:04:53;97808.84;;;5.54;100.00
59767;BME280;46248;58.364;25.582;2023-03-14T07:08:14;97807.19;;;5.53;100.00
59767;BME280;46248;58.364;25.582;2023-03-14T07:11:36;97813.78;;;5.57;100.00
59767;BME280;46248;58.364;25.582;2023-03-14T07:14:59;97805.91;;;5.58;100.00
59767;BME280;46248;58.364;25.582;2023-03-14T07:18:37;97816.06;;;5.61;100.00
59767;BME280;46248;58.364;25.582;2023-03-14T07:22:00;97814.06;;;5.65;100.00
59767;BME280;46248;58.364;25.582;2023-03-14T07:25:21;97817.03;;;5.71;100.00
59767;BME280;46248;58.364;25.582;2023-03-14T07:28:43;97810.78;;;5.63;100.00
59767;BME280;46248;58.364;25.582;2023-03-14T07:32:06;97823.66;;;5.76;100.00
59767;BME280;46248;58.364;25.582;2023-03-14T07:35:29;97798.50;;;5.65;100.00
59767;BME280;46248;58.364;25.582;2023-03-14T07:38:51;97820.47;;;5.83;100.00
59767;BME280;46248;58.364;25.582;2023-03-14T07:42:15;97822.84;;;5.86;100.00
59767;BME280;46248;58.364;25.582;2023-03-14T07:45:37;97833.72;;;5.91;100.00
59767;BME280;46248;58.364;25.582;2023-03-14T07:49:03;97823.34;;;5.91;100.00
59767;BME280;46248;58.364;25.582;2023-03-14T07:52:25;97830.13;;;6.05;100.00
59767;BME280;46248;58.364;25.582;2023-03-14T07:55:47;97828.00;;;6.10;100.00
59767;BME280;46248;58.364;25.582;2023-03-14T07:59:09;97838.63;;;6.07;100.00
59767;BME280;46248;58.364;25.582;2023-03-14T08:02:31;97842.28;;;6.05;100.00
59767;BME280;46248;58.364;25.582;2023-03-14T08:05:54;97853.97;;;6.10;100.00
59767;BME280;46248;58.364;25.582;2023-03-14T08:09:16;97859.75;;;6.14;100.00
59767;BME280;46248;58.364;25.582;2023-03-14T08:12:38;97862.97;;;6.17;100.00
59767;BME280;46248;58.364;25.582;2023-03-14T08:16:00;97855.66;;;6.34;100.00
59767;BME280;46248;58.364;25.582;2023-03-14T08:19:22;97857.94;;;6.38;100.00
59767;BME280;46248;58.364;25.582;2023-03-14T08:22:45;97877.75;;;6.39;100.00
59767;BME280;46248;58.364;25.582;2023-03-14T08:26:07;97875.03;;;6.41;100.00
59767;BME280;46248;58.364;25.582;2023-03-14T08:29:29;97860.88;;;6.45;100.00
59767;BME280;46248;58.364;25.582;2023-03-14T08:32:51;97868.19;;;6.51;100.00
59767;BME280;46248;58.364;25.582;2023-03-14T08:36:13;97880.50;;;6.60;100.00
59767;BME280;46248;58.364;25.582;2023-03-14T08:39:36;97877.75;;;6.73;100.00
59767;BME280;46248;58.364;25.582;2023-03-14T08:43:00;97873.63;;;6.82;100.00
59767;BME280;46248;58.364;25.582;2023-03-14T08:46:21;97871.38;;;6.88;100.00
59767;BME280;46248;58.364;25.582;2023-03-14T08:49:43;97882.69;;;6.99;99.85
59767;BME280;46248;58.364;25.582;2023-03-14T08:53:05;97876.66;;;7.09;100.00
59767;BME280;46248;58.364;25.582;2023-03-14T08:56:28;97879.69;;;7.26;100.00
59767;BME280;46248;58.364;25.582;2023-03-14T08:59:50;97869.47;;;7.45;96.71
59767;BME280;46248;58.364;25.582;2023-03-14T09:03:12;97904.09;;;7.57;97.29
59767;BME280;46248;58.364;25.582;2023-03-14T09:06:34;97897.97;;;7.79;96.39
59767;BME280;46248;58.364;25.582;2023-03-14T09:09:56;97900.38;;;7.92;94.55
59767;BME280;46248;58.364;25.582;2023-03-14T09:13:20;97886.34;;;7.83;93.12
59767;BME280;46248;58.364;25.582;2023-03-14T09:16:42;97915.34;;;7.90;93.70
59767;BME280;46248;58.364;25.582;2023-03-14T09:20:04;97909.28;;;7.89;94.27
59767;BME280;46248;58.364;25.582;2023-03-14T09:23:30;97915.97;;;8.03;95.49
59767;BME280;46248;58.364;25.582;2023-03-14T09:26:52;97923.66;;;8.04;93.28
59767;BME280;46248;58.364;25.582;2023-03-14T09:30:15;97916.53;;;8.07;92.58
59767;BME280;46248;58.364;25.582;2023-03-14T09:33:38;97909.69;;;8.06;93.76
59767;BME280;46248;58.364;25.582;2023-03-14T09:37:00;97922.38;;;8.20;92.65
59767;BME280;46248;58.364;25.582;2023-03-14T09:40:22;97918.72;;;8.22;92.60
59767;BME280;46248;58.364;25.582;2023-03-14T09:43:46;97923.91;;;8.22;92.20
59767;BME280;46248;58.364;25.582;2023-03-14T09:47:13;97918.13;;;8.19;92.13
59767;BME280;46248;58.364;25.582;2023-03-14T09:50:38;97924.56;;;8.15;91.84
59767;BME280;46248;58.364;25.582;2023-03-14T09:54:01;97928.03;;;8.04;90.83
59767;BME280;46248;58.364;25.582;2023-03-14T09:57:25;97913.56;;;7.90;91.77
59767;BME280;46248;58.364;25.582;2023-03-14T10:00:49;97930.53;;;8.06;92.97
59767;BME280;46248;58.364;25.582;2023-03-14T10:04:17;97925.38;;;8.15;91.56
59767;BME280;46248;58.364;25.582;2023-03-14T10:07:43;97939.69;;;8.21;92.12
59767;BME280;46248;58.364;25.582;2023-03-14T10:11:05;97930.09;;;8.21;91.12
59767;BME280;46248;58.364;25.582;2023-03-14T10:14:30;97925.69;;;8.22;90.87
59767;BME280;46248;58.364;25.582;2023-03-14T10:17:55;97928.38;;;8.32;91.07
59767;BME280;46248;58.364;25.582;2023-03-14T10:26:11;97932.94;;;8.51;88.92
59767;BME280;46248;58.364;25.582;2023-03-14T10:29:34;97929.09;;;8.55;90.57
59767;BME280;46248;58.364;25.582;2023-03-14T10:32:56;97942.19;;;8.64;89.40
59767;BME280;46248;58.364;25.582;2023-03-14T10:36:22;97950.00;;;8.64;87.33
59767;BME280;46248;58.364;25.582;2023-03-14T10:39:47;97927.97;;;8.47;88.06
59767;BME280;46248;58.364;25.582;2023-03-14T10:43:15;97956.56;;;8.59;88.84
59767;BME280;46248;58.364;25.582;2023-03-14T10:46:40;97956.56;;;8.59;89.23
59767;BME280;46248;58.364;25.582;2023-03-14T10:50:23;97961.34;;;8.54;86.23
59767;BME280;46248;58.364;25.582;2023-03-14T10:53:48;97961.72;;;8.49;88.61
59767;BME280;46248;58.364;25.582;2023-03-14T10:57:11;97969.81;;;8.46;86.49
59767;BME280;46248;58.364;25.582;2023-03-14T11:00:35;97972.81;;;8.41;87.21
59767;BME280;46248;58.364;25.582;2023-03-14T11:04:00;97978.28;;;8.38;88.44
59767;BME280;46248;58.364;25.582;2023-03-14T11:07:27;97977.41;;;8.38;88.79
59767;BME280;46248;58.364;25.582;2023-03-14T11:10:54;97982.13;;;8.44;89.51
59767;BME280;46248;58.364;25.582;2023-03-14T11:14:25;97993.66;;;8.41;88.79
59767;BME280;46248;58.364;25.582;2023-03-14T11:18:03;97981.78;;;8.37;87.78
59767;BME280;46248;58.364;25.582;2023-03-14T11:21:29;97994.50;;;8.31;89.50
59767;BME280;46248;58.364;25.582;2023-03-14T11:25:20;97967.47;;;8.11;87.43
59767;BME280;46248;58.364;25.582;2023-03-14T11:28:48;97993.22;;;8.25;87.68
59767;BME280;46248;58.364;25.582;2023-03-14T11:32:13;98006.66;;;8.20;88.33
59767;BME280;46248;58.364;25.582;2023-03-14T11:35:45;98017.22;;;8.08;88.56
59767;BME280;46248;58.364;25.582;2023-03-14T11:39:12;98025.44;;;8.03;88.41
59767;BME280;46248;58.364;25.582;2023-03-14T11:42:35;98012.75;;;7.98;91.15
59767;BME280;46248;58.364;25.582;2023-03-14T11:46:03;98006.53;;;7.90;89.52
59767;BME280;46248;58.364;25.582;2023-03-14T11:49:32;98008.66;;;7.85;90.32
59767;BME280;46248;58.364;25.582;2023-03-14T11:53:03;98013.06;;;7.84;90.50
59767;BME280;46248;58.364;25.582;2023-03-14T11:56:33;98012.00;;;7.87;91.35
59767;BME280;46248;58.364;25.582;2023-03-14T11:59:56;98010.88;;;7.89;89.00
59767;BME280;46248;58.364;25.582;2023-03-14T12:03:25;98011.03;;;7.88;90.06
59767;BME280;46248;58.364;25.582;2023-03-14T12:06:51;98012.44;;;7.92;92.15
59767;BME280;46248;58.364;25.582;2023-03-14T12:10:15;98016.56;;;7.94;91.11
59767;BME280;46248;58.364;25.582;2023-03-14T12:13:39;98021.66;;;7.96;91.72
59767;BME280;46248;58.364;25.582;2023-03-14T12:17:05;98016.50;;;7.85;90.53
59767;BME280;46248;58.364;25.582;2023-03-14T12:20:28;98021.44;;;7.88;91.00
59767;BME280;46248;58.364;25.582;2023-03-14T12:23:51;98025.22;;;7.84;91.36
59767;BME280;46248;58.364;25.582;2023-03-14T12:27:45;98025.28;;;7.72;89.95
59767;BME280;46248;58.364;25.582;2023-03-14T12:31:36;98014.63;;;7.64;90.30
59767;BME280;46248;58.364;25.582;2023-03-14T12:35:31;98030.63;;;7.60;90.34
59767;BME280;46248;58.364;25.582;2023-03-14T12:38:57;98028.38;;;7.55;92.05
59767;BME280;46248;58.364;25.582;2023-03-14T12:46:08;98000.84;;;7.30;91.47
59767;BME280;46248;58.364;25.582;2023-03-14T12:49:31;98023.06;;;7.34;91.69
59767;BME280;46248;58.364;25.582;2023-03-14T12:57:10;98011.00;;;7.33;92.99
59767;BME280;46248;58.364;25.582;2023-03-14T13:00:39;98014.09;;;7.27;93.88
59767;BME280;46248;58.364;25.582;2023-03-14T13:04:08;98009.94;;;7.24;94.48
59767;BME280;46248;58.364;25.582;2023-03-14T13:07:34;98017.28;;;7.30;94.18
59767;BME280;46248;58.364;25.582;2023-03-14T13:10:56;98016.69;;;7.27;93.96
59767;BME280;46248;58.364;25.582;2023-03-14T13:14:19;98003.44;;;7.19;94.38
59767;BME280;46248;58.364;25.582;2023-03-14T13:17:41;98013.25;;;7.15;94.80
59767;BME280;46248;58.364;25.582;2023-03-14T13:21:09;98022.72;;;7.27;93.54
59767;BME280;46248;58.364;25.582;2023-03-14T13:24:33;98029.47;;;7.30;93.33
59767;BME280;46248;58.364;25.582;2023-03-14T13:27:56;98025.66;;;7.23;94.67
59767;BME280;46248;58.364;25.582;2023-03-14T13:31:22;98024.63;;;7.14;94.46
59767;BME280;46248;58.364;25.582;2023-03-14T13:34:45;98028.66;;;7.18;94.73
59767;BME280;46248;58.364;25.582;2023-03-14T13:38:17;98035.63;;;7.18;94.93
59767;BME280;46248;58.364;25.582;2023-03-14T13:41:39;98036.69;;;7.15;94.77
59767;BME280;46248;58.364;25.582;2023-03-14T13:45:01;98039.78;;;7.20;94.90
59767;BME280;46248;58.364;25.582;2023-03-14T13:48:28;98023.53;;;7.17;95.74
59767;BME280;46248;58.364;25.582;2023-03-14T13:51:50;98046.25;;;7.26;95.65
59767;BME280;46248;58.364;25.582;2023-03-14T13:55:17;98031.59;;;7.25;94.94
59767;BME280;46248;58.364;25.582;2023-03-14T13:58:40;98042.00;;;7.25;94.71
59767;BME280;46248;58.364;25.582;2023-03-14T14:02:10;98047.91;;;7.16;94.86
59767;BME280;46248;58.364;25.582;2023-03-14T14:05:37;98049.69;;;7.15;95.08
59767;BME280;46248;58.364;25.582;2023-03-14T14:09:10;98063.41;;;7.06;94.83
59767;BME280;46248;58.364;25.582;2023-03-14T14:12:37;98050.38;;;6.95;95.77
59767;BME280;46248;58.364;25.582;2023-03-14T14:16:02;98062.94;;;7.01;95.77
59767;BME280;46248;58.364;25.582;2023-03-14T14:19:27;98055.34;;;6.98;96.12
59767;BME280;46248;58.364;25.582;2023-03-14T14:22:50;98061.97;;;7.02;96.08
59767;BME280;46248;58.364;25.582;2023-03-14T14:26:14;98057.63;;;7.02;95.46
59767;BME280;46248;58.364;25.582;2023-03-14T14:29:39;98052.41;;;7.02;95.88
59767;BME280;46248;58.364;25.582;2023-03-14T14:33:20;98063.75;;;7.13;93.65
59767;BME280;46248;58.364;25.582;2023-03-14T14:36:44;98072.66;;;7.21;94.88
59767;BME280;46248;58.364;25.582;2023-03-14T14:40:17;98076.91;;;7.22;93.41
59767;BME280;46248;58.364;25.582;2023-03-14T14:43:40;98069.69;;;7.26;93.96
59767;BME280;46248;58.364;25.582;2023-03-14T14:47:04;98073.97;;;7.27;93.88
59767;BME280;46248;58.364;25.582;2023-03-14T14:50:29;98069.69;;;7.26;92.65
59767;BME280;46248;58.364;25.582;2023-03-14T14:54:02;98069.81;;;7.24;93.65
59767;BME280;46248;58.364;25.582;2023-03-14T14:57:28;98061.41;;;7.21;93.93
59767;BME280;46248;58.364;25.582;2023-03-14T15:00:54;98062.94;;;7.12;94.21
59767;BME280;46248;58.364;25.582;2023-03-14T15:04:20;98073.84;;;7.17;93.89
59767;BME280;46248;58.364;25.582;2023-03-14T15:07:42;98072.88;;;7.07;93.41
59767;BME280;46248;58.364;25.582;2023-03-14T15:11:04;98081.41;;;7.09;94.25
59767;BME280;46248;58.364;25.582;2023-03-14T15:14:26;98083.16;;;7.08;94.70
59767;BME280;46248;58.364;25.582;2023-03-14T15:17:48;98077.25;;;7.06;93.52
59767;BME280;46248;58.364;25.582;2023-03-14T15:21:12;98062.81;;;7.02;94.40
59767;BME280;46248;58.364;25.582;2023-03-14T15:24:34;98057.81;;;6.88;93.55
59767;BME280;46248;58.364;25.582;2023-03-14T15:27:56;98085.03;;;6.95;94.63
59767;BME280;46248;58.364;25.582;2023-03-14T15:31:19;98084.56;;;6.90;94.05
59767;BME280;46248;58.364;25.582;2023-03-14T15:34:42;98081.19;;;6.77;94.84
59767;BME280;46248;58.364;25.582;2023-03-14T15:38:11;98083.56;;;6.80;93.65
59767;BME280;46248;58.364;25.582;2023-03-14T15:41:34;98078.09;;;6.72;95.49
59767;BME280;46248;58.364;25.582;2023-03-14T15:44:56;98085.22;;;6.70;95.67
59767;BME280;46248;58.364;25.582;2023-03-14T15:48:19;98090.41;;;6.70;95.29
59767;BME280;46248;58.364;25.582;2023-03-14T15:51:41;98096.88;;;6.64;95.83
59767;BME280;46248;58.364;25.582;2023-03-14T15:55:05;98091.31;;;6.57;95.99
59767;BME280;46248;58.364;25.582;2023-03-14T15:58:27;98103.72;;;6.54;96.29
59767;BME280;46248;58.364;25.582;2023-03-14T16:01:49;98083.91;;;6.40;96.29
59767;BME280;46248;58.364;25.582;2023-03-14T16:05:12;98092.09;;;6.47;96.66
59767;BME280;46248;58.364;25.582;2023-03-14T16:08:34;98094.44;;;6.38;94.72
59767;BME280;46248;58.364;25.582;2023-03-14T16:11:58;98097.22;;;6.35;97.06
59767;BME280;46248;58.364;25.582;2023-03-14T16:15:20;98098.53;;;6.30;97.09
59767;BME280;46248;58.364;25.582;2023-03-14T16:18:41;98096.16;;;6.27;97.39
59767;BME280;46248;58.364;25.582;2023-03-14T16:22:04;98099.91;;;6.23;97.29
59767;BME280;46248;58.364;25.582;2023-03-14T16:25:26;98102.03;;;6.17;97.38
59767;BME280;46248;58.364;25.582;2023-03-14T16:28:49;98108.47;;;6.12;98.06
59767;BME280;46248;58.364;25.582;2023-03-14T16:32:11;98116.38;;;6.10;98.15
59767;BME280;46248;58.364;25.582;2023-03-14T16:35:33;98121.09;;;6.05;98.20
59767;BME280;46248;58.364;25.582;2023-03-14T16:38:55;98107.81;;;5.97;98.69
59767;BME280;46248;58.364;25.582;2023-03-14T16:42:20;98112.16;;;5.96;99.73
59767;BME280;46248;58.364;25.582;2023-03-14T16:45:43;98106.75;;;5.87;100.00
59767;BME280;46248;58.364;25.582;2023-03-14T16:49:06;98113.81;;;5.85;100.00
59767;BME280;46248;58.364;25.582;2023-03-14T16:52:28;98115.09;;;5.79;100.00
59767;BME280;46248;58.364;25.582;2023-03-14T16:55:50;98116.13;;;5.77;100.00
59767;BME280;46248;58.364;25.582;2023-03-14T16:59:12;98119.28;;;5.69;100.00
59767;BME280;46248;58.364;25.582;2023-03-14T17:02:36;98138.16;;;5.71;100.00
59767;BME280;46248;58.364;25.582;2023-03-14T17:05:58;98132.03;;;5.59;100.00
59767;BME280;46248;58.364;25.582;2023-03-14T17:09:20;98131.81;;;5.62;100.00
59767;BME280;46248;58.364;25.582;2023-03-14T17:12:42;98135.56;;;5.58;100.00
59767;BME280;46248;58.364;25.582;2023-03-14T17:16:05;98132.88;;;5.47;100.00
59767;BME280;46248;58.364;25.582;2023-03-14T17:19:28;98140.38;;;5.51;100.00
59767;BME280;46248;58.364;25.582;2023-03-14T17:22:52;98147.75;;;5.45;100.00
59767;BME280;46248;58.364;25.582;2023-03-14T17:26:14;98141.91;;;5.41;100.00
59767;BME280;46248;58.364;25.582;2023-03-14T17:29:37;98136.72;;;5.41;100.00
59767;BME280;46248;58.364;25.582;2023-03-14T17:32:59;98134.97;;;5.42;100.00
59767;BME280;46248;58.364;25.582;2023-03-14T17:36:22;98123.88;;;5.27;100.00
59767;BME280;46248;58.364;25.582;2023-03-14T17:39:50;98149.19;;;5.36;100.00
59767;BME280;46248;58.364;25.582;2023-03-14T17:43:13;98157.91;;;5.35;100.00
59767;BME280;46248;58.364;25.582;2023-03-14T17:46:35;98157.28;;;5.32;100.00
59767;BME280;46248;58.364;25.582;2023-03-14T17:49:57;98154.88;;;5.28;100.00
59767;BME280;46248;58.364;25.582;2023-03-14T17:53:20;98118.44;;;5.04;100.00
59767;BME280;46248;58.364;25.582;2023-03-14T17:56:42;98146.91;;;5.19;100.00
59767;BME280;46248;58.364;25.582;2023-03-14T18:00:06;98131.53;;;5.16;100.00
59767;BME280;46248;58.364;25.582;2023-03-14T18:03:29;98121.47;;;5.11;100.00
59767;BME280;46248;58.364;25.582;2023-03-14T18:06:51;98126.84;;;5.08;100.00
59767;BME280;46248;58.364;25.582;2023-03-14T18:10:15;98117.84;;;5.01;100.00